Necker Belle — MKYK7 — position and weather

sailwx.info

Track history (hours):
 
Tides and Currents Weather Stations Pressure Air Temp Water Temp Dewpoint Dewpoint Depression Visibility Wind Speed Wind Dir Waves Ship Positions

Necker Belle

Last reported at 2016-Dec-07 18:31 UTC. Time now 2016-Dec-08 00:19 UTC.
Position N 25°32' W 079°57'.

Length 32 m.

Type: Sailing vessel. MMSI: 232728000.

Date/timePositionNaut miles runAvg speedWind from/ knotsBaromVisibWave heightAir tempDewpointWater temp
2016-Dec-07 18:31N 25°32' W 079°57'6 6.7
2016-Dec-07 17:33N 25°38' W 080°01'5 5.4
2016-Dec-07 16:33N 25°43' W 080°02'7 7.3
2016-Dec-07 15:33N 25°44' W 079°54'8 7.6
2016-Dec-07 14:32N 25°45' W 079°46'16 4.9
2016-Dec-07 11:11N 26°02' W 079°48'4 5.7
2016-Dec-07 10:30N 26°05' W 079°50'6 6.1
2016-Dec-07 09:30N 26°11' W 079°51'5 5.2
2016-Dec-07 08:29N 26°16' W 079°51'7 6.5
2016-Dec-07 07:28N 26°23' W 079°53'  
2016-Nov-30 18:25N 26°52' W 080°01'7 7.7
2016-Nov-30 17:33N 26°58' W 080°01'297 6.8
2016-Nov-28 22:05N 31°52' W 080°54'4 6.9
2016-Nov-28 21:33N 31°55' W 080°56'7 7.3
2016-Nov-28 20:32N 32°01' W 081°01'2 1.7
2016-Nov-28 19:33N 32°01' W 081°03'0 0.0
2016-Nov-28 18:33N 32°01' W 081°03'0 0.0
2016-Nov-28 17:33N 32°01' W 081°03'0 0.0
2016-Nov-28 16:33N 32°01' W 081°03'0 0.0
2016-Nov-28 15:27N 32°01' W 081°03'0 0.0
2016-Nov-28 14:27N 32°01' W 081°03'0 0.0
2016-Nov-28 13:33N 32°01' W 081°03'0 0.0
2016-Nov-28 12:33N 32°01' W 081°03'0 0.0
2016-Nov-28 11:33N 32°01' W 081°03'0 0.0
2016-Nov-28 10:33N 32°01' W 081°03'0 0.0
2016-Nov-28 09:33N 32°01' W 081°03'0 0.0
2016-Nov-28 08:33N 32°01' W 081°03'0 0.0
2016-Nov-28 07:33N 32°01' W 081°03'0 0.0
2016-Nov-28 06:33N 32°01' W 081°03'0 0.0
2016-Nov-28 05:33N 32°01' W 081°03'0 0.0
2016-Nov-28 04:33N 32°01' W 081°03'0 0.0
2016-Nov-28 03:33N 32°01' W 081°03'0 0.0
2016-Nov-28 02:33N 32°01' W 081°03'0 0.0
2016-Nov-28 01:33N 32°01' W 081°03'0 0.0
2016-Nov-28 00:33N 32°01' W 081°03'0 0.0
2016-Nov-27 23:33N 32°01' W 081°03'0 0.0
2016-Nov-27 22:33N 32°01' W 081°03'0 0.0
2016-Nov-27 21:27N 32°01' W 081°03'0 0.0
2016-Nov-27 20:21N 32°01' W 081°03'0 0.0
2016-Nov-27 19:33N 32°01' W 081°03'0 0.0
2016-Nov-27 18:33N 32°01' W 081°03'  
Track history (hours):
 
Tides and Currents Weather Stations Pressure Air Temp Water Temp Dewpoint Dewpoint Depression Visibility Wind Speed Wind Dir Waves Ship Positions

Necker Belle

Last reported at 2016-Dec-07 18:31 UTC. Time now 2016-Dec-08 00:19 UTC.
Position N 25°32' W 079°57'.

Length 32 m.

Type: Sailing vessel. MMSI: 232728000.

Date/timePositionNaut miles runAvg speedWind from/ knotsBaromVisibWave heightAir tempDewpointWater temp
2016-Dec-07 18:31N 25°32' W 079°57'6 6.7
2016-Dec-07 17:33N 25°38' W 080°01'5 5.4
2016-Dec-07 16:33N 25°43' W 080°02'7 7.3
2016-Dec-07 15:33N 25°44' W 079°54'8 7.6
2016-Dec-07 14:32N 25°45' W 079°46'16 4.9
2016-Dec-07 11:11N 26°02' W 079°48'4 5.7
2016-Dec-07 10:30N 26°05' W 079°50'6 6.1
2016-Dec-07 09:30N 26°11' W 079°51'5 5.2
2016-Dec-07 08:29N 26°16' W 079°51'7 6.5
2016-Dec-07 07:28N 26°23' W 079°53'  
2016-Nov-30 18:25N 26°52' W 080°01'7 7.7
2016-Nov-30 17:33N 26°58' W 080°01'297 6.8
2016-Nov-28 22:05N 31°52' W 080°54'4 6.9
2016-Nov-28 21:33N 31°55' W 080°56'7 7.3
2016-Nov-28 20:32N 32°01' W 081°01'2 1.7
2016-Nov-28 19:33N 32°01' W 081°03'0 0.0
2016-Nov-28 18:33N 32°01' W 081°03'0 0.0
2016-Nov-28 17:33N 32°01' W 081°03'0 0.0
2016-Nov-28 16:33N 32°01' W 081°03'0 0.0
2016-Nov-28 15:27N 32°01' W 081°03'0 0.0
2016-Nov-28 14:27N 32°01' W 081°03'0 0.0
2016-Nov-28 13:33N 32°01' W 081°03'0 0.0
2016-Nov-28 12:33N 32°01' W 081°03'0 0.0
2016-Nov-28 11:33N 32°01' W 081°03'0 0.0
2016-Nov-28 10:33N 32°01' W 081°03'0 0.0
2016-Nov-28 09:33N 32°01' W 081°03'0 0.0
2016-Nov-28 08:33N 32°01' W 081°03'0 0.0
2016-Nov-28 07:33N 32°01' W 081°03'0 0.0
2016-Nov-28 06:33N 32°01' W 081°03'0 0.0
2016-Nov-28 05:33N 32°01' W 081°03'0 0.0
2016-Nov-28 04:33N 32°01' W 081°03'0 0.0
2016-Nov-28 03:33N 32°01' W 081°03'0 0.0
2016-Nov-28 02:33N 32°01' W 081°03'0 0.0
2016-Nov-28 01:33N 32°01' W 081°03'0 0.0
2016-Nov-28 00:33N 32°01' W 081°03'0 0.0
2016-Nov-27 23:33N 32°01' W 081°03'0 0.0
2016-Nov-27 22:33N 32°01' W 081°03'0 0.0
2016-Nov-27 21:27N 32°01' W 081°03'0 0.0
2016-Nov-27 20:21N 32°01' W 081°03'0 0.0
2016-Nov-27 19:33N 32°01' W 081°03'0 0.0
2016-Nov-27 18:33N 32°01' W 081°03'  

Dump ship's entire track history